Latest Weather Observations for Cobar

IDN60801

Issued at 11:04 am EST Wednesday 1 July 2015 (issued every 30 minutes, with the page automatically refreshed every 10 minutes)

About weather observations | Map of weather stations | Latest weather observations for NSW | Other Formats
Station Details ID: 048027 Name: COBAR MO Lat: -31.48 Lon: 145.83 Height: 260.0 m
Data from the previous 72 hours. | See also: Recent months at Cobar
Date/Time
EST
Temp
°C
App
Temp
°C
Dew
Point
Rel
Hum
%
Delta-T
°C
Wind Press
QNH
hPa
Press
MSL
hPa
Rain
since 9 am
mm
Dir
 
Spd
km/h
Gust
km/h
Spd
kts
Gust
kts
01/10:30am 10.0 6.4 3.1 62 3.0 SSE 11 15 6 8 1029.5 1029.8 0.0
01/10:00am 9.4 6.6 2.9 64 2.8 SSE 7 13 4 7 1029.5 1029.8 0.0
01/09:30am 8.1 5.0 3.5 73 2.0 S 9 13 5 7 1029.6 1029.8 0.0
01/09:00am 7.6 5.0 4.2 79 1.5 S 7 11 4 6 1029.5 1029.7 0.0
01/08:07am 5.0 2.0 4.1 94 0.4 S 9 11 5 6 1028.9 1029.0 0.0
01/08:00am 4.8 2.2 4.1 95 0.3 S 7 9 4 5 1028.9 1029.0 0.0
01/07:30am 4.0 1.5 3.8 99 0.1 SSE 6 7 3 4 1028.7 1028.8 0.0
01/07:00am 4.3 1.7 4.1 99 0.1 SSE 7 7 4 4 1028.1 1028.3 0.0
01/06:30am 4.6 2.0 4.4 99 0.1 SSE 7 9 4 5 1027.7 1027.9 0.0
01/05:30am 4.8 2.4 4.3 97 0.2 S 6 7 3 4 1027.4 1027.6 0.0
01/05:18am 5.1 2.6 4.9 99 0.1 S 7 7 4 4 1027.3 1027.5 0.0
01/05:00am 5.3 3.1 5.1 99 0.1 S 6 7 3 4 1027.3 1027.5 0.0
01/04:30am 5.9 3.7 5.4 97 0.2 S 6 9 3 5 1027.3 1027.5 0.0
01/04:00am 6.5 4.2 5.8 95 0.3 S 7 9 4 5 1027.3 1027.5 0.0
01/03:30am 6.7 4.0 5.8 94 0.4 S 9 11 5 6 1027.3 1027.5 0.0
01/03:00am 6.8 4.2 5.9 94 0.4 S 9 11 5 6 1027.4 1027.6 0.0
01/02:30am 6.8 4.2 5.9 94 0.4 S 9 13 5 7 1027.4 1027.6 0.0
01/02:00am 7.1 4.8 5.8 91 0.6 S 7 11 4 6 1027.6 1027.8 0.0
01/01:30am 7.3 4.6 5.8 90 0.7 SSE 9 13 5 7 1027.7 1027.9 0.0
01/01:00am 7.7 5.1 5.9 88 0.8 SSE 9 17 5 9 1027.8 1028.0 0.0
01/12:30am 7.7 5.0 5.7 87 0.9 S 9 13 5 7 1028.0 1028.2 0.0
01/12:00am 7.7 5.0 5.7 87 0.9 S 9 13 5 7 1028.0 1028.2 0.0
 
Date/Time
EST
Temp
°C
App
Temp
°C
Dew
Point
Rel
Hum
%
Delta-T
°C
Wind Press
QNH
hPa
Press
MSL
hPa
Rain
since 9 am
mm
Dir
 
Spd
km/h
Gust
km/h
Spd
kts
Gust
kts
30/11:30pm 8.1 5.0 5.7 85 1.1 SSW 11 15 6 8 1027.7 1027.9 0.0
30/11:00pm 8.5 5.9 5.9 84 1.2 SSW 9 13 5 7 1027.8 1028.0 0.0
30/10:30pm 9.0 6.5 6.4 84 1.2 S 9 13 5 7 1027.7 1027.9 0.0
30/10:00pm 9.5 7.0 6.5 81 1.4 SSW 9 11 5 6 1027.8 1028.0 0.0
30/09:30pm 10.2 7.7 6.6 78 1.7 S 9 13 5 7 1027.5 1027.7 0.0
30/09:00pm 10.7 8.2 6.7 76 1.9 SSW 9 13 5 7 1027.6 1027.8 0.0
30/08:30pm 11.0 8.5 6.6 74 2.1 S 9 11 5 6 1027.5 1027.7 0.0
30/08:00pm 11.4 8.5 6.6 72 2.3 SSW 11 15 6 8 1027.6 1027.8 0.0
30/07:30pm 11.8 8.9 6.6 70 2.5 S 11 15 6 8 1027.4 1027.6 0.0
30/07:00pm 11.9 9.5 6.9 71 2.4 SSW 9 15 5 8 1027.2 1027.4 0.0
30/06:30pm 12.6 9.6 6.1 64 3.1 S 11 17 6 9 1027.0 1027.2 0.0
30/06:00pm 13.0 10.4 6.3 64 3.2 S 9 15 5 8 1026.8 1027.0 0.0
30/05:30pm 13.5 10.4 5.7 59 3.7 S 11 15 6 8 1026.6 1026.8 0.0
30/05:00pm 14.2 11.7 6.4 59 3.8 SSW 9 17 5 9 1026.7 1026.9 0.0
30/04:30pm 14.7 11.3 6.0 56 4.2 SSW 13 17 7 9 1026.3 1026.5 0.0
30/04:00pm 15.1 11.7 6.0 54 4.4 SSW 13 19 7 10 1026.2 1026.4 0.0
30/03:30pm 15.5 12.2 6.3 54 4.5 SW 13 19 7 10 1025.9 1026.0 0.0
30/03:00pm 15.5 12.2 6.5 55 4.4 SSW 13 20 7 11 1025.8 1025.9 0.0
30/02:30pm 15.4 12.2 6.7 56 4.3 SSW 13 19 7 10 1025.8 1025.9 0.0
30/02:00pm 16.0 12.6 7.7 58 4.2 SW 15 20 8 11 1025.9 1026.0 0.0
30/01:30pm 16.2 13.7 6.7 53 4.7 S 9 15 5 8 1026.1 1026.3 0.0
30/01:00pm 15.5 13.1 6.8 56 4.3 S 9 17 5 9 1026.5 1026.7 0.0
30/12:30pm 15.0 12.5 6.6 57 4.1 S 9 15 5 8 1026.9 1027.1 0.0
30/12:00pm 14.6 12.3 5.9 56 4.2 E 7 13 4 7 1027.3 1027.5 0.0
30/11:30am 13.8 10.8 6.1 59 3.7 SE 11 17 6 9 1027.6 1027.8 0.0
30/11:00am 13.2 10.1 5.6 60 3.6 S 11 15 6 8 1028.4 1028.5 0.0
30/10:30am 11.2 8.6 5.9 70 2.5 S 9 13 5 7 1028.7 1028.8 0.0
30/10:00am 10.6 7.3 6.4 75 2.0 SW 13 19 7 10 1029.0 1029.1 0.0
30/09:30am 10.9 8.2 5.7 70 2.4 S 9 13 5 7 1028.8 1028.9 0.0
30/09:00am 9.5 6.8 5.8 78 1.7 SE 9 13 5 7 1028.1 1028.3 0.0
30/08:30am 7.9 5.3 5.9 87 0.9 ESE 9 11 5 6 1028.2 1028.4 0.0
30/08:00am 7.8 4.8 5.8 87 0.9 S 11 17 6 9 1028.1 1028.3 0.0
30/07:30am 8.0 5.8 6.3 89 0.8 SSE 7 11 4 6 1027.7 1027.9 0.0
30/07:00am 8.0 5.1 6.7 91 0.6 SSW 11 15 6 8 1027.6 1027.8 0.0
30/06:30am 9.1 6.5 6.3 83 1.3 SE 9 11 5 6 1027.3 1027.5 0.0
30/06:00am 8.8 6.6 6.4 85 1.1 SSE 7 9 4 5 1027.3 1027.5 0.0
30/05:30am 9.0 6.8 6.0 81 1.4 SE 7 9 4 5 1027.0 1027.2 0.0
30/05:00am 8.8 6.3 6.4 85 1.1 SE 9 11 5 6 1026.8 1027.0 0.0
30/04:30am 9.1 6.9 6.1 81 1.4 SE 7 9 4 5 1027.1 1027.3 0.0
30/04:00am 8.8 6.6 6.4 85 1.1 SE 7 7 4 4 1027.0 1027.2 0.0
30/03:30am 8.7 6.5 6.3 85 1.1 SSE 7 9 4 5 1027.4 1027.6 0.0
30/03:00am 9.1 7.0 6.5 84 1.2 SE 7 9 4 5 1027.4 1027.6 0.0
30/02:30am 9.2 7.2 7.1 87 1.0 SE 7 9 4 5 1027.6 1027.8 0.0
30/02:00am 9.4 7.3 6.6 83 1.3 SSE 7 9 4 5 1027.6 1027.8 0.0
30/01:30am 9.5 8.7 6.7 83 1.3 CALM 0 0 0 0 1027.8 1028.0 0.0
30/01:00am 9.5 7.0 6.7 83 1.3 SSW 9 11 5 6 1027.9 1028.1 0.0
30/12:30am 9.7 7.9 7.0 83 1.3 SSW 6 9 3 5 1027.9 1028.1 0.0
30/12:14am 9.9 8.8 7.0 82 1.4 S 2 7 1 4 1028.0 1028.2 0.0
30/12:00am 9.9 8.4 7.0 82 1.4 SSE 4 6 2 3 1028.2 1028.4 0.0
 
Date/Time
EST
Temp
°C
App
Temp
°C
Dew
Point
Rel
Hum
%
Delta-T
°C
Wind Press
QNH
hPa
Press
MSL
hPa
Rain
since 9 am
mm
Dir
 
Spd
km/h
Gust
km/h
Spd
kts
Gust
kts
29/11:55pm 10.3 8.8 6.7 78 1.7 SE 4 6 2 3 1028.2 1028.4 0.0
29/11:30pm 10.6 8.6 6.4 75 2.0 SE 6 7 3 4 1028.4 1028.5 0.0
29/11:00pm 10.5 8.6 6.5 76 1.9 E 6 7 3 4 1028.6 1028.7 0.0
29/10:30pm 10.6 8.7 6.6 76 1.9 ESE 6 9 3 5 1028.7 1028.8 0.0
29/10:00pm 10.8 8.7 6.6 75 2.0 ESE 7 9 4 5 1028.8 1028.9 0.0
29/09:30pm 11.0 8.8 6.3 73 2.2 E 7 9 4 5 1029.0 1029.1 0.0
29/09:00pm 10.8 8.7 6.6 75 2.0 ESE 7 7 4 4 1029.2 1029.3 0.0
29/08:30pm 11.0 8.8 6.3 73 2.2 ESE 7 7 4 4 1029.4 1029.6 0.0
29/08:00pm 11.4 8.8 6.1 70 2.5 SSW 9 11 5 6 1029.5 1029.7 0.0
29/07:30pm 11.5 8.9 6.2 70 2.5 S 9 11 5 6 1029.5 1029.7 0.0
29/07:00pm 12.0 9.6 5.3 63 3.1 S 7 9 4 5 1029.5 1029.7 0.0
29/06:30pm 12.3 9.9 5.2 62 3.3 S 7 9 4 5 1029.3 1029.4 0.0
29/06:00pm 11.8 11.0 6.3 69 2.6 CALM 0 0 0 0 1029.2 1029.3 0.0
29/05:30pm 12.3 11.5 6.4 67 2.8 CALM 0 4 0 2 1029.1 1029.2 0.0
29/05:00pm 13.8 11.1 5.6 57 3.9 S 9 11 5 6 1028.7 1028.8 0.0
29/04:30pm 14.7 11.1 5.2 53 4.5 SSW 13 17 7 9 1028.5 1028.6 0.0
29/04:00pm 15.4 13.0 5.1 50 4.9 S 7 11 4 6 1028.6 1028.7 0.0
29/03:30pm 15.8 14.1 5.7 51 4.9 SW 4 11 2 6 1028.5 1028.6 0.0
29/03:00pm 15.8 13.5 4.6 47 5.3 WNW 6 9 3 5 1028.7 1028.8 0.0
29/02:30pm 15.2 12.8 5.1 51 4.8 SW 7 11 4 6 1028.8 1028.9 0.0
29/02:00pm 15.8 14.2 6.4 53 4.6 WNW 4 9 2 5 1029.1 1029.2 0.0
29/01:30pm 14.2 12.1 5.6 56 4.1 WSW 6 9 3 5 1029.4 1029.6 0.0
29/01:00pm 13.7 12.4 6.0 59 3.7 SE 2 7 1 4 1029.6 1029.8 0.0
29/12:30pm 12.9 10.9 6.4 64 3.1 ESE 6 9 3 5 1030.0 1030.2 0.0
29/12:00pm 12.6 10.6 6.3 65 3.0 ESE 6 9 3 5 1030.6 1030.8 0.0
29/11:30am 12.1 10.1 6.9 70 2.5 ESE 7 9 4 5 1030.8 1031.0 0.0
29/11:00am 10.4 7.8 6.1 75 2.0 SE 9 13 5 7 1031.1 1031.3 0.0
29/10:30am 9.4 6.4 5.9 79 1.6 ESE 11 13 6 7 1031.2 1031.4 0.0
29/10:00am 8.0 4.8 5.3 83 1.2 ESE 11 15 6 8 1031.6 1031.8 0.0
29/09:30am 7.0 4.1 4.7 85 1.0 E 9 13 5 7 1031.7 1031.9 0.0
29/09:00am 6.1 2.7 4.2 88 0.8 ESE 11 15 6 8 1031.6 1031.8 0.2
29/08:30am 4.8 0.9 3.6 92 0.5 ESE 13 19 7 10 1031.6 1031.8 0.2
29/08:02am 3.9 0.7 3.2 95 0.3 ESE 9 11 5 6 1031.7 1031.9 0.2
29/08:00am 3.8 0.6 3.1 95 0.3 ESE 9 11 5 6 1031.8 1032.0 0.2
29/07:30am 2.7 -0.6 2.2 96 0.2 ESE 9 9 5 5 1031.5 1031.7 0.2
29/07:00am 2.5 -0.8 2.2 98 0.1 SE 9 11 5 6 1031.2 1031.4 0.2
29/06:30am 3.3 0.1 2.8 97 0.2 SSE 9 11 5 6 1031.1 1031.3 0.2
29/06:00am 3.4 0.2 3.2 99 0.1 SSE 9 9 5 5 1031.0 1031.2 0.0
29/05:30am 3.4 0.6 3.2 99 0.1 SE 7 9 4 5 1030.8 1031.0 0.0
29/05:00am 3.8 1.1 3.6 99 0.1 SE 7 7 4 4 1030.9 1031.1 0.0
29/04:47am 3.9 1.1 3.4 97 0.2 SE 7 9 4 5 1030.9 1031.1 0.0
29/04:30am 4.4 1.3 3.7 95 0.3 SE 9 9 5 5 1030.9 1031.1 0.0
29/04:11am 4.7 2.1 4.0 95 0.3 SSE 7 11 4 6 1031.0 1031.2 0.0
29/04:00am 4.8 2.2 4.3 97 0.2 SSE 7 9 4 5 1031.0 1031.2 0.0
29/03:33am 4.8 2.3 4.6 99 0.1 SE 7 9 4 5 1031.2 1031.4 0.0
29/03:30am 4.8 2.3 4.6 99 0.1 ESE 7 7 4 4 1031.2 1031.4 0.0
29/03:00am 5.1 2.6 4.9 99 0.1 ESE 7 7 4 4 1031.3 1031.5 0.0
29/02:55am 5.1 2.6 4.6 97 0.2 ESE 7 7 4 4 1031.3 1031.5 0.0
29/02:30am 6.0 3.7 5.8 99 0.1 E 7 9 4 5 1031.3 1031.5 0.0
29/02:00am 5.8 3.5 5.6 99 0.1 ESE 7 9 4 5 1031.5 1031.7 0.0
29/01:36am 5.7 3.5 5.5 99 0.1 SE 6 9 3 5 1031.6 1031.8 0.0
29/01:30am 5.6 3.4 5.4 99 0.1 ESE 6 7 3 4 1031.6 1031.8 0.0
29/01:00am 5.1 2.8 4.9 99 0.1 SE 6 7 3 4 1031.7 1031.9 0.0
29/12:30am 5.0 2.7 5.0 100 0.0 SE 6 9 3 5 1031.7 1031.9 0.0
29/12:00am 5.1 2.9 5.1 100 0.0 S 6 11 3 6 1032.0 1032.2 0.0
 
Date/Time
EST
Temp
°C
App
Temp
°C
Dew
Point
Rel
Hum
%
Delta-T
°C
Wind Press
QNH
hPa
Press
MSL
hPa
Rain
since 9 am
mm
Dir
 
Spd
km/h
Gust
km/h
Spd
kts
Gust
kts
28/11:30pm 5.2 3.0 5.2 100 0.0 SE 6 9 3 5 1032.2 1032.4 0.0
28/11:00pm 5.6 3.2 5.4 99 0.1 SSE 7 11 4 6 1032.4 1032.5 0.0
28/10:30pm 5.9 3.8 5.7 99 0.1 SSE 6 11 3 6 1032.4 1032.5 0.0
28/10:00pm 6.0 5.1 6.0 100 0.0 CALM 0 0 0 0 1032.2 1032.4 0.0
28/09:30pm 6.3 5.0 6.1 99 0.1 SW 2 7 1 4 1032.4 1032.5 0.0
28/09:00pm 6.4 4.4 6.2 99 0.1 SW 6 9 3 5 1032.4 1032.5 0.0
28/08:30pm 6.2 3.6 6.0 99 0.1 SW 9 11 5 6 1032.2 1032.4 0.0
28/08:00pm 6.5 3.9 6.3 99 0.1 WSW 9 11 5 6 1032.1 1032.3 0.0
28/07:35pm 6.7 4.6 6.5 99 0.1 WSW 7 9 4 5 1031.9 1032.1 0.0
28/07:30pm 6.6 4.4 6.4 99 0.1 WSW 7 9 4 5 1031.8 1032.0 0.0
28/07:00pm 6.7 4.5 6.3 97 0.2 W 7 7 4 4 1031.8 1032.0 0.0
28/06:38pm 7.0 4.9 6.8 99 0.1 W 7 7 4 4 1031.6 1031.8 0.0
28/06:30pm 7.2 5.1 6.5 95 0.3 WSW 7 7 4 4 1031.6 1031.8 0.0
28/06:00pm 7.4 5.6 7.0 97 0.2 SW 6 7 3 4 1031.1 1031.3 0.0
28/05:40pm 7.7 6.2 6.8 94 0.4 SW 4 6 2 3 1031.0 1031.2 0.0
28/05:30pm 8.0 6.2 7.1 94 0.4 SW 6 7 3 4 1031.1 1031.3 0.0
28/05:00pm 8.8 6.9 7.5 91 0.6 S 7 9 4 5 1031.1 1031.3 0.0
28/04:30pm 9.3 7.0 7.6 89 0.8 S 9 13 5 7 1031.1 1031.3 0.0
28/04:00pm 9.5 7.2 7.6 88 0.9 SSE 9 15 5 8 1031.0 1031.2 0.0
28/03:30pm 9.5 7.2 7.4 87 1.0 SSE 9 15 5 8 1031.1 1031.3 0.0
28/03:00pm 9.6 7.3 7.5 87 1.0 S 9 11 5 6 1031.2 1031.4 0.0
28/02:30pm 9.3 7.0 7.4 88 0.9 S 9 11 5 6 1031.3 1031.5 0.0
28/02:00pm 8.7 6.8 7.4 91 0.6 E 7 11 4 6 1031.6 1031.8 0.0
28/01:30pm 8.4 6.4 7.3 93 0.5 SSE 7 11 4 6 1031.8 1032.0 0.0
28/01:00pm 8.0 5.7 7.4 96 0.3 ESE 9 13 5 7 1032.2 1032.4 0.0
28/12:38pm 7.7 5.3 7.1 96 0.3 SE 9 15 5 8 1032.6 1032.8 0.0
28/12:30pm 7.8 5.4 7.2 96 0.3 SSE 9 15 5 8 1032.7 1032.9 0.0
28/12:00pm 7.3 4.9 6.9 97 0.2 SSE 9 15 5 8 1033.0 1033.2 0.0
28/11:30am 7.1 4.7 6.9 99 0.1 SE 9 13 5 7 1033.3 1033.5 0.0

Other Formats:

Comma delimited format used in spreadsheet applications
http://www.bom.gov.au/fwo/IDN60801/IDN60801.94711.axf

JavaScript Object Notation format (JSON) in row-major order
http://www.bom.gov.au/fwo/IDN60801/IDN60801.94711.json